Portada
METAR-TAF:

METAR-TAF

Aeroports :

Lagos, Nigèria

Aeroport Internacional Murtala Mohammed

latitud: 06-35N, longitud: 003-20E, altitud: 40 m

Observació

L'informe es va fer fa 55 minuts, a les 00:00 UTC
Vent 2 kt amb direcció variable
Temperatura 26°C
Humitat 94%
Pressió 1012 hPa
Visibilitat: 8000 m

METAR: DNMM 200000Z VRB02KT 8000 NSC 26/25 Q1012 NOSIG

Hora: 01:55 (00:55 UTC)

Pronòstic

L'informe es va fer fa 3 hores i 15 minuts, a les 21:40 UTC
Pronòstic vàlid del 20 a les 00 UTC al 21 a les 06 UTC
Vent 2 kt amb direcció variable
Visibilitat: 7000 m
Temporalment
l' 20 a les 05 UTC al 20 a les 08 UTC
Visibilitat: 5000 m
calitja
Probabilitat 30%
l' 20 a les 05 UTC al 20 a les 06 UTC
Visibilitat: 3000 m
boirina
Evolucionant progressivament
l' 20 a les 08 UTC al 20 a les 10 UTC
Vent 10 kt del Oest/Nord-Oest
Cel ennuvolat a una alçada de 1300 ft

TAF: DNMM 192140Z 2000/2106 VRB02KT 7000 NSC TEMPO 2005/2008 5000 HZ PROB30 2005/2006 3000 BR BECMG 2008/2010 29010KT BKN013

Observacions i pronòstics meteorològics de més de 4000 aeroports (METAR i TAF).

Les estacions disponibles són els punts grocs i vermells al mapa.

Posi el ratolí al punt desitjat per veure el nom de l'estació.

Feu clic per veure les observacions i els pronòstics meteorològics.

Per canviar el mapa: feu clic els botons verds amb una creu de color negre per apropar; al botó verd amb un guió per allunyar la imatge; o en les fletxes verdes per a mapes adjacents.


METAR-TAF: